Time;durP1;ratioP1;P1;durP2;ratioP2;P2;SDS_P1;SDS_P2;PMS_P1;PMS_P2;Temp;Humidity;BMP_temperature;BMP_pressure;BME280_temperature;BME280_humidity;BME280_pressure;Samples;Min_cycle;Max_cycle;Signal;HPM_P1;HPM_P2
2023/01/27 00:00:55;;;;;;;2.10;1.30;;;;;;;;;;4994790;28;20215;-86
2023/01/27 00:03:23;;;;;;;12.70;2.43;;;;;;;;;;4995117;28;20200;-85
2023/01/27 00:05:52;;;;;;;3.57;1.57;;;;;;;;;;4994594;28;20220;-85
2023/01/27 00:08:20;;;;;;;3.87;2.03;;;;;;;;;;4994663;28;20231;-86
2023/01/27 00:13:25;;;;;;;6.43;2.47;;;;;;;;;;4995950;28;20192;-85
2023/01/27 00:13:38;;;;;;;1.37;1.10;;;;;;;;;;4994632;28;20299;-85
2023/01/27 00:16:06;;;;;;;8.60;1.93;;;;;;;;;;4994550;28;20259;-86
2023/01/27 00:18:35;;;;;;;7.47;2.83;;;;;;;;;;4994441;28;20351;-85
2023/01/27 00:26:41;;;;;;;8.50;2.00;;;;;;;;;;4985113;28;20216;-85
2023/01/27 00:29:11;;;;;;;5.77;1.57;;;;;;;;;;4994593;28;20192;-85
2023/01/27 00:34:25;;;;;;;8.30;1.63;;;;;;;;;;4994675;28;20242;-85
2023/01/27 00:36:53;;;;;;;2.37;1.27;;;;;;;;;;4994053;28;20235;-86
2023/01/27 00:39:21;;;;;;;2.43;1.40;;;;;;;;;;4994092;28;20220;-85
2023/01/27 00:41:50;;;;;;;1.17;1.17;;;;;;;;;;4994160;28;20238;-86
2023/01/27 00:44:19;;;;;;;2.47;1.33;;;;;;;;;;4994325;28;20303;-86
2023/01/27 00:46:48;;;;;;;1.53;1.43;;;;;;;;;;4995358;28;20232;-86
2023/01/27 00:49:17;;;;;;;2.13;1.00;;;;;;;;;;4994114;28;20210;-85
2023/01/27 00:51:45;;;;;;;5.97;2.80;;;;;;;;;;4994241;28;20207;-85
2023/01/27 00:54:14;;;;;;;2.93;1.57;;;;;;;;;;4994851;28;20196;-85
2023/01/27 00:56:43;;;;;;;5.10;2.13;;;;;;;;;;4995422;28;20208;-86
2023/01/27 00:59:11;;;;;;;3.93;1.87;;;;;;;;;;4993524;28;20286;-85
2023/01/27 01:01:41;;;;;;;1.53;1.20;;;;;;;;;;4993603;28;20304;-85
2023/01/27 01:04:10;;;;;;;2.37;1.60;;;;;;;;;;4994880;28;20232;-85
2023/01/27 01:06:38;;;;;;;5.33;2.57;;;;;;;;;;4993758;28;20224;-85
2023/01/27 01:09:06;;;;;;;3.60;1.23;;;;;;;;;;4993568;28;20212;-86
2023/01/27 01:11:35;;;;;;;6.23;1.70;;;;;;;;;;4993921;28;20263;-86
2023/01/27 01:14:03;;;;;;;3.13;2.10;;;;;;;;;;4993467;28;20207;-86
2023/01/27 01:16:31;;;;;;;2.23;1.10;;;;;;;;;;4993745;28;20263;-86
2023/01/27 01:19:01;;;;;;;5.67;2.03;;;;;;;;;;4993455;28;20196;-85
2023/01/27 01:21:29;;;;;;;2.70;1.80;;;;;;;;;;4993514;28;20266;-85
2023/01/27 01:23:58;;;;;;;12.03;5.63;;;;;;;;;;4994705;28;20200;-86
2023/01/27 01:26:26;;;;;;;2.83;2.07;;;;;;;;;;4993859;28;20210;-86
2023/01/27 01:28:55;;;;;;;4.30;3.77;;;;;;;;;;4994349;28;20204;-86
2023/01/27 01:31:23;;;;;;;1.90;1.63;;;;;;;;;;4994258;28;20208;-85
2023/01/27 01:33:51;;;;;;;4.13;1.50;;;;;;;;;;4993450;28;20208;-85
2023/01/27 01:36:22;;;;;;;5.70;2.53;;;;;;;;;;4994077;28;20240;-85
2023/01/27 01:38:55;;;;;;;5.07;1.93;;;;;;;;;;4993437;28;20208;-85
2023/01/27 01:41:24;;;;;;;2.43;1.57;;;;;;;;;;4993131;28;20203;-86
2023/01/27 01:43:52;;;;;;;5.30;2.87;;;;;;;;;;4992996;28;20208;-85
2023/01/27 01:46:22;;;;;;;9.77;2.70;;;;;;;;;;4993138;28;20204;-85
2023/01/27 01:48:52;;;;;;;1.57;1.47;;;;;;;;;;4993436;28;20203;-86
2023/01/27 01:51:24;;;;;;;7.77;2.83;;;;;;;;;;4995731;28;20219;-85
2023/01/27 01:53:55;;;;;;;6.67;2.83;;;;;;;;;;4997064;28;20231;-85
2023/01/27 01:56:27;;;;;;;5.27;3.03;;;;;;;;;;4997399;28;20207;-85
2023/01/27 01:58:58;;;;;;;8.67;3.53;;;;;;;;;;4997147;28;20188;-85
2023/01/27 02:01:26;;;;;;;7.53;4.83;;;;;;;;;;4998188;28;20258;-85
2023/01/27 02:04:00;;;;;;;5.37;4.87;;;;;;;;;;4998383;28;20223;-85
2023/01/27 02:06:29;;;;;;;4.87;3.83;;;;;;;;;;4996865;28;20314;-85
2023/01/27 02:08:58;;;;;;;5.00;4.40;;;;;;;;;;4997145;28;20250;-85
2023/01/27 02:11:26;;;;;;;6.17;4.80;;;;;;;;;;4997032;28;20204;-85
2023/01/27 02:13:55;;;;;;;6.10;4.47;;;;;;;;;;4997075;28;20204;-85
2023/01/27 02:16:24;;;;;;;8.53;7.13;;;;;;;;;;4997988;28;20197;-85
2023/01/27 02:18:52;;;;;;;6.80;5.30;;;;;;;;;;4996589;28;20207;-85
2023/01/27 02:21:20;;;;;;;10.57;5.03;;;;;;;;;;4996603;28;20573;-85
2023/01/27 02:23:54;;;;;;;10.73;6.20;;;;;;;;;;4996676;28;20196;-85
2023/01/27 02:26:26;;;;;;;12.23;6.13;;;;;;;;;;4996645;28;20222;-85
2023/01/27 02:28:56;;;;;;;9.33;5.87;;;;;;;;;;4996634;28;20303;-85
2023/01/27 02:31:24;;;;;;;9.37;6.60;;;;;;;;;;4996454;28;20193;-85
2023/01/27 02:33:54;;;;;;;7.80;5.90;;;;;;;;;;4996812;28;20228;-85
2023/01/27 02:36:23;;;;;;;7.77;3.80;;;;;;;;;;4996285;28;20287;-85
2023/01/27 02:38:53;;;;;;;5.57;4.43;;;;;;;;;;4996876;28;20204;-85
2023/01/27 02:41:24;;;;;;;7.17;5.50;;;;;;;;;;4996081;28;20225;-85
2023/01/27 02:43:53;;;;;;;8.83;6.43;;;;;;;;;;4996233;28;20232;-85
2023/01/27 02:46:22;;;;;;;6.03;4.67;;;;;;;;;;4996233;28;20227;-85
2023/01/27 02:48:50;;;;;;;7.83;6.90;;;;;;;;;;4997495;28;20204;-85
2023/01/27 02:51:19;;;;;;;5.60;4.03;;;;;;;;;;4996545;28;20308;-86
2023/01/27 02:53:47;;;;;;;4.73;4.27;;;;;;;;;;4996125;28;20308;-85
2023/01/27 02:56:15;;;;;;;9.50;5.43;;;;;;;;;;4996398;28;20232;-85
2023/01/27 02:58:44;;;;;;;7.27;4.27;;;;;;;;;;4995842;28;20208;-85
2023/01/27 03:01:13;;;;;;;5.87;4.40;;;;;;;;;;4995691;28;20240;-85
2023/01/27 03:03:45;;;;;;;5.73;4.63;;;;;;;;;;4994902;28;20231;-85
2023/01/27 03:06:14;;;;;;;6.10;3.80;;;;;;;;;;4996019;28;20219;-85
2023/01/27 03:08:43;;;;;;;6.30;4.90;;;;;;;;;;4996943;28;20200;-85
2023/01/27 03:11:12;;;;;;;4.93;4.43;;;;;;;;;;4995975;28;20243;-85
2023/01/27 03:13:40;;;;;;;9.63;4.50;;;;;;;;;;4996992;28;20200;-85
2023/01/27 03:18:56;;;;;;;5.93;4.90;;;;;;;;;;4996750;28;20218;-85
2023/01/27 03:21:24;;;;;;;5.43;4.17;;;;;;;;;;4995717;28;20220;-86
2023/01/27 03:23:53;;;;;;;4.60;3.53;;;;;;;;;;4995203;28;20251;-85
2023/01/27 03:26:21;;;;;;;4.80;3.93;;;;;;;;;;4995784;28;20211;-85
2023/01/27 03:29:53;;;;;;;5.17;3.67;;;;;;;;;;4995440;28;20200;-85
2023/01/27 03:31:38;;;;;;;4.10;3.43;;;;;;;;;;4995141;28;20216;-85
2023/01/27 03:34:08;;;;;;;4.80;4.27;;;;;;;;;;4996735;28;20197;-85
2023/01/27 03:47:41;;;;;;;5.43;3.90;;;;;;;;;;4995421;28;20238;-85
2023/01/27 03:50:12;;;;;;;2.60;2.40;;;;;;;;;;4995247;28;20204;-85
2023/01/27 03:53:01;;;;;;;10.47;4.10;;;;;;;;;;4995295;28;20288;-85
2023/01/27 03:55:29;;;;;;;4.27;3.80;;;;;;;;;;4995220;28;20201;-85
2023/01/27 03:58:13;;;;;;;5.63;2.63;;;;;;;;;;4994780;28;20239;-85
2023/01/27 04:00:42;;;;;;;4.13;3.03;;;;;;;;;;4994718;28;20307;-85
2023/01/27 04:08:44;;;;;;;4.97;3.50;;;;;;;;;;4994867;28;20207;-85
2023/01/27 04:14:01;;;;;;;4.93;3.00;;;;;;;;;;4995536;28;20231;-85
2023/01/27 04:16:30;;;;;;;4.43;3.80;;;;;;;;;;4994760;28;20203;-85
2023/01/27 04:18:58;;;;;;;4.87;4.37;;;;;;;;;;4994757;28;20200;-85
2023/01/27 04:21:28;;;;;;;4.63;3.70;;;;;;;;;;4994394;28;20220;-85
2023/01/27 04:23:56;;;;;;;2.63;2.43;;;;;;;;;;4994796;28;20268;-85
2023/01/27 04:26:25;;;;;;;2.97;2.70;;;;;;;;;;4994161;28;20196;-85
2023/01/27 04:28:53;;;;;;;3.50;3.20;;;;;;;;;;4994296;28;20207;-85
2023/01/27 04:31:22;;;;;;;2.73;2.53;;;;;;;;;;4994174;28;20243;-85
2023/01/27 04:33:50;;;;;;;3.67;3.07;;;;;;;;;;4994406;28;20200;-85
2023/01/27 04:36:18;;;;;;;4.77;2.87;;;;;;;;;;4993805;28;20234;-85
2023/01/27 04:38:48;;;;;;;4.07;3.00;;;;;;;;;;4994569;28;20240;-85
2023/01/27 04:41:17;;;;;;;3.23;2.93;;;;;;;;;;4994060;28;20228;-85
2023/01/27 04:43:45;;;;;;;2.67;2.20;;;;;;;;;;4995363;28;20201;-85
2023/01/27 04:46:13;;;;;;;4.53;3.03;;;;;;;;;;4994200;28;20223;-85
2023/01/27 04:48:42;;;;;;;2.50;2.30;;;;;;;;;;4994245;28;20299;-85
2023/01/27 04:51:10;;;;;;;4.10;3.27;;;;;;;;;;4995479;28;20220;-85
2023/01/27 04:53:38;;;;;;;2.60;2.30;;;;;;;;;;4994849;28;20291;-85
2023/01/27 04:56:18;;;;;;;2.97;2.67;;;;;;;;;;4993688;28;20197;-85
2023/01/27 04:58:47;;;;;;;1.83;1.73;;;;;;;;;;4994230;28;20230;-85
2023/01/27 05:01:15;;;;;;;3.83;2.53;;;;;;;;;;4993554;28;20223;-85
2023/01/27 05:03:43;;;;;;;3.33;3.03;;;;;;;;;;4994968;28;20219;-85
2023/01/27 05:06:12;;;;;;;5.30;3.17;;;;;;;;;;4994089;28;20223;-85
2023/01/27 05:08:40;;;;;;;4.97;3.57;;;;;;;;;;4993753;28;20211;-85
2023/01/27 05:11:10;;;;;;;7.57;3.20;;;;;;;;;;4993573;28;20285;-85
2023/01/27 05:13:39;;;;;;;3.20;2.60;;;;;;;;;;4993493;28;20392;-85
2023/01/27 05:16:12;;;;;;;3.70;2.97;;;;;;;;;;4994014;28;20196;-85
2023/01/27 05:18:41;;;;;;;3.50;2.57;;;;;;;;;;4993792;28;20204;-85
2023/01/27 05:21:12;;;;;;;3.57;2.03;;;;;;;;;;4993707;28;20346;-85
2023/01/27 05:23:41;;;;;;;2.53;2.33;;;;;;;;;;4993592;28;20226;-85
2023/01/27 05:26:12;;;;;;;3.60;2.90;;;;;;;;;;4992852;28;20247;-85
2023/01/27 05:28:42;;;;;;;5.20;2.30;;;;;;;;;;4993504;28;20192;-85
2023/01/27 05:31:11;;;;;;;3.17;2.80;;;;;;;;;;4994640;28;20193;-85
2023/01/27 05:33:41;;;;;;;3.70;3.13;;;;;;;;;;4993470;28;20204;-85
2023/01/27 05:36:11;;;;;;;3.83;3.27;;;;;;;;;;4993165;28;20278;-85
2023/01/27 05:38:40;;;;;;;3.63;2.50;;;;;;;;;;4993096;28;20212;-85
2023/01/27 05:41:09;;;;;;;4.70;2.73;;;;;;;;;;4992985;28;20239;-85
2023/01/27 05:43:39;;;;;;;4.33;2.47;;;;;;;;;;4993268;28;20284;-85
2023/01/27 05:46:09;;;;;;;3.17;2.43;;;;;;;;;;4993057;28;20223;-87
2023/01/27 05:48:39;;;;;;;2.00;1.90;;;;;;;;;;4992925;28;20201;-87
2023/01/27 05:51:08;;;;;;;3.27;2.17;;;;;;;;;;4993466;28;20208;-87
2023/01/27 05:53:36;;;;;;;2.03;1.80;;;;;;;;;;4993326;28;20208;-87
2023/01/27 05:56:05;;;;;;;1.77;1.57;;;;;;;;;;4993360;28;20254;-87
2023/01/27 05:58:33;;;;;;;5.03;2.07;;;;;;;;;;4993308;28;20204;-87
2023/01/27 06:01:08;;;;;;;4.60;1.97;;;;;;;;;;4994283;28;20200;-86
2023/01/27 06:03:37;;;;;;;2.37;2.20;;;;;;;;;;4993351;28;20238;-87
2023/01/27 06:06:07;;;;;;;1.60;1.57;;;;;;;;;;4993305;28;20267;-86
2023/01/27 06:08:36;;;;;;;3.57;2.23;;;;;;;;;;4993240;28;20208;-87
2023/01/27 06:11:05;;;;;;;1.40;1.30;;;;;;;;;;4993151;28;20208;-86
2023/01/27 06:13:34;;;;;;;1.60;1.50;;;;;;;;;;4993080;28;20234;-86
2023/01/27 06:16:04;;;;;;;2.70;1.70;;;;;;;;;;4993124;28;20253;-87
2023/01/27 06:18:33;;;;;;;1.87;1.53;;;;;;;;;;4993185;28;20254;-86
2023/01/27 06:21:03;;;;;;;1.53;1.30;;;;;;;;;;4994226;28;20196;-87
2023/01/27 06:23:31;;;;;;;1.40;1.30;;;;;;;;;;4992796;28;20254;-87
2023/01/27 06:26:02;;;;;;;2.63;1.67;;;;;;;;;;4993950;28;20259;-87
2023/01/27 06:28:31;;;;;;;3.47;1.90;;;;;;;;;;4993908;28;20196;-87
2023/01/27 06:31:04;;;;;;;1.80;1.70;;;;;;;;;;4992994;28;20263;-86
2023/01/27 06:33:34;;;;;;;3.33;1.53;;;;;;;;;;4992848;28;20214;-87
2023/01/27 06:36:03;;;;;;;7.70;1.77;;;;;;;;;;4992954;28;20270;-87
2023/01/27 06:38:32;;;;;;;3.60;2.60;;;;;;;;;;4997413;28;20204;-87
2023/01/27 06:41:00;;;;;;;1.77;1.50;;;;;;;;;;4996609;28;20200;-87
2023/01/27 06:43:29;;;;;;;2.03;1.60;;;;;;;;;;4997372;28;20227;-87
2023/01/27 06:45:57;;;;;;;1.07;1.07;;;;;;;;;;4996265;28;20227;-86
2023/01/27 06:48:26;;;;;;;3.50;1.73;;;;;;;;;;4997370;28;20203;-87
2023/01/27 06:50:56;;;;;;;3.37;1.50;;;;;;;;;;4996300;28;20204;-85
2023/01/27 06:53:25;;;;;;;3.50;1.20;;;;;;;;;;4995913;28;20184;-87
2023/01/27 06:55:56;;;;;;;4.00;1.20;;;;;;;;;;4996029;28;20232;-86
2023/01/27 06:58:25;;;;;;;0.93;0.93;;;;;;;;;;4996186;28;20209;-87
2023/01/27 07:00:54;;;;;;;1.13;1.10;;;;;;;;;;4996214;28;20207;-86
2023/01/27 07:03:22;;;;;;;1.20;1.20;;;;;;;;;;4995811;28;20245;-86
2023/01/27 07:05:51;;;;;;;2.23;1.47;;;;;;;;;;4996328;28;20233;-80
2023/01/27 07:08:20;;;;;;;3.27;2.13;;;;;;;;;;4996552;28;20189;-78
2023/01/27 07:10:49;;;;;;;4.23;1.30;;;;;;;;;;4995919;28;20234;-79
2023/01/27 07:13:17;;;;;;;1.40;1.40;;;;;;;;;;4996597;28;20286;-79
2023/01/27 07:15:47;;;;;;;1.27;1.27;;;;;;;;;;4995659;28;20207;-79
2023/01/27 07:18:15;;;;;;;7.03;1.30;;;;;;;;;;4996686;28;20256;-79
2023/01/27 07:20:44;;;;;;;1.00;1.00;;;;;;;;;;4995417;28;20223;-79
2023/01/27 07:23:12;;;;;;;2.30;1.57;;;;;;;;;;4995347;28;20579;-79
2023/01/27 07:25:43;;;;;;;1.30;1.30;;;;;;;;;;4996579;28;20213;-79
2023/01/27 07:28:11;;;;;;;1.40;1.30;;;;;;;;;;4996236;28;20294;-79
2023/01/27 07:30:40;;;;;;;3.83;3.43;;;;;;;;;;4996207;28;20289;-79
2023/01/27 07:33:09;;;;;;;1.57;1.47;;;;;;;;;;4994945;28;20290;-79
2023/01/27 07:35:37;;;;;;;1.10;1.10;;;;;;;;;;4995913;28;20217;-78
2023/01/27 07:38:15;;;;;;;2.60;1.83;;;;;;;;;;4995173;28;20206;-85
2023/01/27 07:40:45;;;;;;;1.47;1.37;;;;;;;;;;4995737;28;20205;-86
2023/01/27 07:43:14;;;;;;;1.40;1.40;;;;;;;;;;4995481;28;20228;-86
2023/01/27 07:45:43;;;;;;;1.50;1.40;;;;;;;;;;4995614;28;20204;-85
2023/01/27 07:48:12;;;;;;;1.30;1.30;;;;;;;;;;4995059;28;20203;-86
2023/01/27 07:50:41;;;;;;;1.67;1.57;;;;;;;;;;4995261;28;20207;-86
2023/01/27 07:53:11;;;;;;;3.07;2.60;;;;;;;;;;4995089;28;20308;-86
2023/01/27 07:55:39;;;;;;;1.43;1.43;;;;;;;;;;4995196;28;20203;-86
2023/01/27 07:58:12;;;;;;;1.60;1.50;;;;;;;;;;4995294;28;20274;-86
2023/01/27 08:00:41;;;;;;;3.00;1.63;;;;;;;;;;4995400;28;20206;-86
2023/01/27 08:03:23;;;;;;;2.70;1.97;;;;;;;;;;4990540;28;20234;-86
2023/01/27 09:41:50;;;;;;;2.27;1.37;;;;;;;;;;4995089;28;20238;-87
2023/01/27 09:48:02;;;;;;;2.87;1.30;;;;;;;;;;4993835;28;20222;-87
2023/01/27 09:57:11;;;;;;;0.90;0.90;;;;;;;;;;4991157;28;20299;-93
2023/01/27 10:05:21;;;;;;;1.20;1.20;;;;;;;;;;5034145;28;20230;-89
2023/01/27 10:08:11;;;;;;;1.50;1.40;;;;;;;;;;5029556;28;20198;-89
2023/01/27 10:10:51;;;;;;;8.30;1.53;;;;;;;;;;5024743;28;20201;-88
2023/01/27 10:13:35;;;;;;;1.10;1.10;;;;;;;;;;5042270;28;20203;-87
2023/01/27 10:16:22;;;;;;;1.23;1.13;;;;;;;;;;5025426;28;20226;-89
2023/01/27 10:19:00;;;;;;;1.00;1.00;;;;;;;;;;5025362;28;20213;-87
2023/01/27 10:21:37;;;;;;;0.97;0.97;;;;;;;;;;5032787;28;20338;-87
2023/01/27 10:24:10;;;;;;;1.00;1.00;;;;;;;;;;5019720;28;20206;-87
2023/01/27 10:26:41;;;;;;;1.13;1.10;;;;;;;;;;5021876;28;20223;-88
2023/01/27 10:29:17;;;;;;;0.90;0.90;;;;;;;;;;5043048;28;20290;-87
2023/01/27 10:31:58;;;;;;;1.13;0.90;;;;;;;;;;5044421;28;20216;-88
2023/01/27 10:34:33;;;;;;;0.90;0.90;;;;;;;;;;5038385;28;20202;-88
2023/01/27 10:37:08;;;;;;;1.40;1.30;;;;;;;;;;5021503;28;20201;-87
2023/01/27 10:39:42;;;;;;;1.10;1.10;;;;;;;;;;5045573;28;20202;-87
2023/01/27 10:42:17;;;;;;;1.37;1.37;;;;;;;;;;5038936;28;20210;-86
2023/01/27 10:44:54;;;;;;;2.50;1.10;;;;;;;;;;5040528;28;20228;-86
2023/01/27 10:47:27;;;;;;;2.63;1.00;;;;;;;;;;5023311;28;20197;-88
2023/01/27 10:50:00;;;;;;;1.20;1.10;;;;;;;;;;5025932;28;20289;-87
2023/01/27 10:55:55;;;;;;;1.30;1.20;;;;;;;;;;5026126;28;20171;-88
2023/01/27 10:58:30;;;;;;;1.57;1.17;;;;;;;;;;5022923;28;20209;-89
2023/01/27 11:01:05;;;;;;;1.13;1.10;;;;;;;;;;5048970;28;20201;-88
2023/01/27 11:03:52;;;;;;;1.17;1.17;;;;;;;;;;5016433;28;20255;-86
2023/01/27 11:06:24;;;;;;;1.00;1.00;;;;;;;;;;5017769;28;20206;-90
2023/01/27 11:08:54;;;;;;;0.87;0.87;;;;;;;;;;5010368;28;20199;-85
2023/01/27 11:14:26;;;;;;;2.00;1.33;;;;;;;;;;4939941;28;20209;-89
2023/01/27 11:17:13;;;;;;;0.90;0.90;;;;;;;;;;4998823;28;20207;-90
2023/01/27 11:19:45;;;;;;;0.90;0.90;;;;;;;;;;5008627;28;20214;-88
2023/01/27 11:22:18;;;;;;;1.10;1.10;;;;;;;;;;5021652;28;20236;-86
2023/01/27 11:24:50;;;;;;;1.07;1.07;;;;;;;;;;5013413;28;20211;-89
2023/01/27 11:27:23;;;;;;;1.00;1.00;;;;;;;;;;5012157;28;20213;-88
2023/01/27 11:29:55;;;;;;;1.20;1.20;;;;;;;;;;5015760;28;20199;-85
2023/01/27 11:32:33;;;;;;;1.40;1.30;;;;;;;;;;5021329;28;20221;-86
2023/01/27 11:35:04;;;;;;;6.00;1.33;;;;;;;;;;5011148;28;20302;-86
2023/01/27 11:37:34;;;;;;;1.53;1.10;;;;;;;;;;5006144;28;20199;-87
2023/01/27 11:40:04;;;;;;;1.40;1.30;;;;;;;;;;5020389;28;20206;-88
2023/01/27 11:42:35;;;;;;;0.90;0.90;;;;;;;;;;5003700;28;20199;-89
2023/01/27 11:45:04;;;;;;;1.47;1.10;;;;;;;;;;5022572;28;20309;-89
2023/01/27 11:47:37;;;;;;;0.73;0.73;;;;;;;;;;5030672;28;20265;-89
2023/01/27 11:50:07;;;;;;;0.90;0.90;;;;;;;;;;5018446;28;20250;-88
2023/01/27 11:52:35;;;;;;;0.90;0.90;;;;;;;;;;5024112;28;20200;-89
2023/01/27 11:55:09;;;;;;;1.23;1.10;;;;;;;;;;5007626;28;20301;-92
2023/01/27 11:57:42;;;;;;;0.83;0.83;;;;;;;;;;5010297;28;20187;-90
2023/01/27 12:00:18;;;;;;;1.30;1.23;;;;;;;;;;5031084;28;20195;-90
2023/01/27 12:02:53;;;;;;;0.80;0.80;;;;;;;;;;5015287;28;20227;-89
2023/01/27 12:05:27;;;;;;;0.80;0.80;;;;;;;;;;4999912;28;20215;-90
2023/01/27 12:07:57;;;;;;;0.80;0.80;;;;;;;;;;4986409;28;20303;-85
2023/01/27 12:10:30;;;;;;;0.90;0.90;;;;;;;;;;5001942;28;20201;-88
2023/01/27 12:13:01;;;;;;;0.70;0.70;;;;;;;;;;5002445;28;20215;-87
2023/01/27 12:15:31;;;;;;;1.60;1.27;;;;;;;;;;4982993;28;20288;-87
2023/01/27 12:18:03;;;;;;;0.70;0.70;;;;;;;;;;5001702;28;20200;-86
2023/01/27 12:20:34;;;;;;;0.90;0.90;;;;;;;;;;4996904;28;20226;-88
2023/01/27 12:23:05;;;;;;;0.77;0.77;;;;;;;;;;5006338;28;20210;-87
2023/01/27 12:25:45;;;;;;;1.50;1.00;;;;;;;;;;5003498;28;20265;-87
2023/01/27 12:28:22;;;;;;;4.73;1.27;;;;;;;;;;4986278;28;20232;-87
2023/01/27 12:30:51;;;;;;;0.90;0.90;;;;;;;;;;4983888;28;20200;-87
2023/01/27 12:33:26;;;;;;;1.13;1.00;;;;;;;;;;4984529;28;20266;-86
2023/01/27 12:35:58;;;;;;;0.80;0.80;;;;;;;;;;5002968;28;20204;-87
2023/01/27 12:38:27;;;;;;;0.83;0.80;;;;;;;;;;4986700;28;20214;-88
2023/01/27 12:40:59;;;;;;;0.80;0.80;;;;;;;;;;5001069;28;20204;-87
2023/01/27 12:43:28;;;;;;;0.90;0.90;;;;;;;;;;5013930;28;20280;-87
2023/01/27 12:46:04;;;;;;;1.00;1.00;;;;;;;;;;4998757;28;20267;-87
2023/01/27 12:48:44;;;;;;;0.97;0.97;;;;;;;;;;4998062;28;20277;-85
2023/01/27 12:51:17;;;;;;;0.80;0.80;;;;;;;;;;4985523;28;20274;-86
2023/01/27 12:53:46;;;;;;;0.90;0.90;;;;;;;;;;4998628;28;20210;-88
2023/01/27 12:56:16;;;;;;;1.00;1.00;;;;;;;;;;4996553;28;20290;-88
2023/01/27 12:58:46;;;;;;;1.27;1.17;;;;;;;;;;4995969;28;20231;-88
2023/01/27 13:01:31;;;;;;;0.90;0.90;;;;;;;;;;4986784;28;20200;-89
2023/01/27 13:04:02;;;;;;;0.90;0.90;;;;;;;;;;4997385;28;20257;-87
2023/01/27 13:06:33;;;;;;;0.90;0.90;;;;;;;;;;4995842;28;20219;-91
2023/01/27 13:09:03;;;;;;;0.90;0.90;;;;;;;;;;4994600;28;20254;-90
2023/01/27 13:11:33;;;;;;;0.90;0.90;;;;;;;;;;5010590;28;20206;-91
2023/01/27 13:14:02;;;;;;;0.80;0.80;;;;;;;;;;4987186;28;20199;-92
2023/01/27 13:16:31;;;;;;;1.30;0.90;;;;;;;;;;4992647;28;20196;-87
2023/01/27 13:19:22;;;;;;;1.03;1.03;;;;;;;;;;4995985;28;20231;-89
2023/01/27 13:21:56;;;;;;;1.30;1.30;;;;;;;;;;4997234;28;20287;-89
2023/01/27 13:24:32;;;;;;;0.90;0.90;;;;;;;;;;4986070;28;20208;-88
2023/01/27 13:27:02;;;;;;;0.90;0.90;;;;;;;;;;5008497;28;20278;-90
2023/01/27 13:29:34;;;;;;;1.63;1.53;;;;;;;;;;4986654;28;20207;-89
2023/01/27 13:32:06;;;;;;;0.83;0.83;;;;;;;;;;4991467;28;20203;-87
2023/01/27 13:34:40;;;;;;;0.93;0.93;;;;;;;;;;4984578;28;20211;-90
2023/01/27 13:37:15;;;;;;;3.50;1.37;;;;;;;;;;4985139;28;20207;-89
2023/01/27 13:39:48;;;;;;;1.50;1.40;;;;;;;;;;4996535;28;20246;-89
2023/01/27 13:42:20;;;;;;;1.00;1.00;;;;;;;;;;4985814;28;20237;-89
2023/01/27 13:44:51;;;;;;;0.90;0.90;;;;;;;;;;4989481;28;20223;-89
2023/01/27 13:47:23;;;;;;;0.90;0.90;;;;;;;;;;4990712;28;20608;-89
2023/01/27 13:53:22;;;;;;;1.23;1.17;;;;;;;;;;4993868;28;20209;-89
2023/01/27 13:56:02;;;;;;;1.50;1.13;;;;;;;;;;4987348;28;20209;-86
2023/01/27 13:58:36;;;;;;;0.90;0.90;;;;;;;;;;5007939;28;20210;-90
2023/01/27 14:01:11;;;;;;;1.53;1.43;;;;;;;;;;4992733;28;20195;-89
2023/01/27 14:03:48;;;;;;;0.93;0.93;;;;;;;;;;4997788;28;20242;-88
2023/01/27 14:06:28;;;;;;;1.10;1.10;;;;;;;;;;5006427;28;20202;-88
2023/01/27 14:09:09;;;;;;;1.10;1.10;;;;;;;;;;5007096;28;20202;-88
2023/01/27 14:11:42;;;;;;;1.10;1.10;;;;;;;;;;5009304;28;20281;-90
2023/01/27 14:14:17;;;;;;;1.00;1.00;;;;;;;;;;5009371;28;20211;-88
2023/01/27 14:16:54;;;;;;;24.73;1.37;;;;;;;;;;5006017;28;20202;-90
2023/01/27 14:19:31;;;;;;;1.00;1.00;;;;;;;;;;5023320;28;20245;-89
2023/01/27 14:22:03;;;;;;;0.90;0.90;;;;;;;;;;5004768;28;20206;-87
2023/01/27 14:24:39;;;;;;;2.00;1.03;;;;;;;;;;5023256;28;20204;-88
2023/01/27 14:27:11;;;;;;;0.87;0.87;;;;;;;;;;5007859;28;20763;-90
2023/01/27 14:29:42;;;;;;;2.03;1.07;;;;;;;;;;5027159;28;20199;-87
2023/01/27 14:32:15;;;;;;;1.17;1.17;;;;;;;;;;5006192;28;20249;-88
2023/01/27 14:34:53;;;;;;;1.17;1.17;;;;;;;;;;5008132;28;20210;-89
2023/01/27 14:37:25;;;;;;;1.00;1.00;;;;;;;;;;5003824;28;20241;-89
2023/01/27 14:40:01;;;;;;;1.00;1.00;;;;;;;;;;5027527;28;20198;-91
2023/01/27 14:42:52;;;;;;;1.00;1.00;;;;;;;;;;5009031;28;20206;-90
2023/01/27 14:45:24;;;;;;;1.30;1.20;;;;;;;;;;5006261;28;20317;-89
2023/01/27 14:47:58;;;;;;;1.10;1.10;;;;;;;;;;5025786;28;20249;-87
2023/01/27 14:50:30;;;;;;;0.90;0.90;;;;;;;;;;5007236;28;20211;-90
2023/01/27 14:53:08;;;;;;;3.90;1.30;;;;;;;;;;5006945;28;20199;-89
2023/01/27 14:55:43;;;;;;;1.77;1.63;;;;;;;;;;5021103;28;20200;-88
2023/01/27 14:58:23;;;;;;;1.57;1.47;;;;;;;;;;5000136;28;20293;-86
2023/01/27 15:00:56;;;;;;;2.30;1.67;;;;;;;;;;5008301;28;20244;-87
2023/01/27 15:03:37;;;;;;;1.10;1.10;;;;;;;;;;5021989;28;20334;-86
2023/01/27 15:06:11;;;;;;;3.10;2.20;;;;;;;;;;5013418;28;20221;-86
2023/01/27 15:08:46;;;;;;;3.50;1.63;;;;;;;;;;5004936;28;20207;-87
2023/01/27 15:11:24;;;;;;;1.20;1.20;;;;;;;;;;5009143;28;20202;-87
2023/01/27 15:13:59;;;;;;;1.20;1.20;;;;;;;;;;5029886;28;20198;-87
2023/01/27 15:16:51;;;;;;;1.57;1.47;;;;;;;;;;5007616;28;20284;-88
2023/01/27 15:19:37;;;;;;;1.00;1.00;;;;;;;;;;5011273;28;20207;-87
2023/01/27 15:22:20;;;;;;;1.00;1.00;;;;;;;;;;5009609;28;20252;-87
2023/01/27 15:24:55;;;;;;;1.07;1.00;;;;;;;;;;5014640;28;20274;-87
2023/01/27 15:27:26;;;;;;;1.43;1.33;;;;;;;;;;5016950;28;20210;-86
2023/01/27 15:29:55;;;;;;;1.30;1.30;;;;;;;;;;5030266;28;20210;-86
2023/01/27 15:32:27;;;;;;;1.63;1.53;;;;;;;;;;5029825;28;20206;-86
2023/01/27 15:35:11;;;;;;;3.00;1.30;;;;;;;;;;5014793;28;20199;-87
2023/01/27 15:37:55;;;;;;;1.00;1.00;;;;;;;;;;5011243;28;20227;-85
2023/01/27 15:40:25;;;;;;;2.50;1.30;;;;;;;;;;5008016;28;20209;-87
2023/01/27 15:43:03;;;;;;;1.57;1.40;;;;;;;;;;5015082;28;20199;-88
2023/01/27 15:45:33;;;;;;;1.53;1.43;;;;;;;;;;5016650;28;20203;-87
2023/01/27 15:48:03;;;;;;;1.00;1.00;;;;;;;;;;5018887;28;20206;-87
2023/01/27 15:50:32;;;;;;;1.67;1.57;;;;;;;;;;5028152;28;20238;-85
2023/01/27 15:53:02;;;;;;;1.00;1.00;;;;;;;;;;5030083;28;20257;-88
2023/01/27 15:55:32;;;;;;;0.87;0.87;;;;;;;;;;5010416;28;20199;-88
2023/01/27 15:58:07;;;;;;;1.03;1.03;;;;;;;;;;5009750;28;20205;-87
2023/01/27 16:00:37;;;;;;;1.80;1.70;;;;;;;;;;5028712;28;20227;-87
2023/01/27 16:03:16;;;;;;;1.43;1.33;;;;;;;;;;5014138;28;20235;-86
2023/01/27 16:05:45;;;;;;;1.43;1.33;;;;;;;;;;4993982;28;20230;-86
2023/01/27 16:08:15;;;;;;;3.13;1.50;;;;;;;;;;5004052;28;20219;-85
2023/01/27 16:10:43;;;;;;;1.57;1.47;;;;;;;;;;4991324;28;20211;-86
2023/01/27 16:13:21;;;;;;;1.40;1.40;;;;;;;;;;4986076;28;20200;-87
2023/01/27 16:16:22;;;;;;;0.90;0.90;;;;;;;;;;4989930;28;20204;-87
2023/01/27 16:18:55;;;;;;;1.43;1.30;;;;;;;;;;4999782;28;20204;-86
2023/01/27 16:21:43;;;;;;;1.10;1.10;;;;;;;;;;4990958;28;20214;-90
2023/01/27 16:24:17;;;;;;;1.00;1.00;;;;;;;;;;5004978;28;20219;-90
2023/01/27 16:26:48;;;;;;;1.10;1.10;;;;;;;;;;4985022;28;20243;-90
2023/01/27 16:29:24;;;;;;;1.43;1.30;;;;;;;;;;4987195;28;20210;-89
2023/01/27 16:31:55;;;;;;;1.13;1.13;;;;;;;;;;4998870;28;20211;-88
2023/01/27 16:34:32;;;;;;;1.50;1.43;;;;;;;;;;4989951;28;20208;-91
2023/01/27 16:37:11;;;;;;;1.00;1.00;;;;;;;;;;4989031;28;20204;-89
2023/01/27 16:39:44;;;;;;;1.30;1.20;;;;;;;;;;4992615;28;20211;-89
2023/01/27 16:42:15;;;;;;;1.07;1.07;;;;;;;;;;5004657;28;20200;-90
2023/01/27 16:44:47;;;;;;;1.33;1.30;;;;;;;;;;4986171;28;20238;-89
2023/01/27 16:47:18;;;;;;;1.17;1.17;;;;;;;;;;5004318;28;20219;-86
2023/01/27 16:49:49;;;;;;;1.30;1.20;;;;;;;;;;4985520;28;20219;-89
2023/01/27 16:52:18;;;;;;;1.40;1.40;;;;;;;;;;5000356;28;20274;-92
2023/01/27 16:54:57;;;;;;;1.40;1.30;;;;;;;;;;5005354;28;20195;-91
2023/01/27 16:57:30;;;;;;;1.10;1.10;;;;;;;;;;4985926;28;20232;-93
2023/01/27 17:00:02;;;;;;;1.20;1.20;;;;;;;;;;4993091;28;20196;-92
2023/01/27 17:02:34;;;;;;;1.70;1.60;;;;;;;;;;4981595;28;20228;-92
2023/01/27 17:05:04;;;;;;;1.00;0.90;;;;;;;;;;5007110;28;20242;-91
2023/01/27 17:07:33;;;;;;;1.80;1.37;;;;;;;;;;5024218;28;20451;-92
2023/01/27 17:10:06;;;;;;;1.27;1.23;;;;;;;;;;5009118;28;20214;-91
2023/01/27 17:12:35;;;;;;;1.23;1.23;;;;;;;;;;5012603;28;20190;-89
2023/01/27 17:15:15;;;;;;;1.67;1.57;;;;;;;;;;5012668;28;20199;-91
2023/01/27 17:17:44;;;;;;;1.60;1.50;;;;;;;;;;5012147;28;20197;-91
2023/01/27 17:20:20;;;;;;;1.37;1.30;;;;;;;;;;5026995;28;20211;-88
2023/01/27 17:22:53;;;;;;;1.10;1.10;;;;;;;;;;5029621;28;20207;-91
2023/01/27 17:25:30;;;;;;;1.97;1.03;;;;;;;;;;5029718;28;20206;-92
2023/01/27 17:28:00;;;;;;;1.13;1.13;;;;;;;;;;5029587;28;20238;-90
2023/01/27 17:30:34;;;;;;;1.00;1.00;;;;;;;;;;5008279;28;20218;-91
2023/01/27 17:33:03;;;;;;;1.90;1.80;;;;;;;;;;5028378;28;20195;-91
2023/01/27 17:35:33;;;;;;;1.27;1.27;;;;;;;;;;5013275;28;20202;-93
2023/01/27 17:38:06;;;;;;;1.80;1.50;;;;;;;;;;5028845;28;20191;-91
2023/01/27 17:40:37;;;;;;;1.57;1.47;;;;;;;;;;5008598;28;20203;-91
2023/01/27 17:43:23;;;;;;;1.57;1.47;;;;;;;;;;5007238;28;20203;-92